Time;durP1;ratioP1;P1;durP2;ratioP2;P2;SDS_P1;SDS_P2;PMS_P1;PMS_P2;Temp;Humidity;BMP_temperature;BMP_pressure;BME280_temperature;BME280_humidity;BME280_pressure;Samples;Min_cycle;Max_cycle;Signal;HPM_P1;HPM_P2
2022/09/20 00:01:14;;;;;;;12.63;3.20;;;;;;;;;;5067686;28;20028;-78
2022/09/20 00:03:41;;;;;;;11.68;2.90;;;;;;;;;;5067316;28;20039;-77
2022/09/20 00:06:08;;;;;;;12.85;2.78;;;;;;;;;;5067733;28;20024;-77
2022/09/20 00:08:34;;;;;;;9.77;2.40;;;;;;;;;;5067945;28;20139;-77
2022/09/20 00:11:01;;;;;;;11.38;2.60;;;;;;;;;;5067730;28;20386;-78
2022/09/20 00:13:28;;;;;;;10.50;3.42;;;;;;;;;;5067062;28;20082;-78
2022/09/20 00:15:54;;;;;;;14.82;2.58;;;;;;;;;;5067732;28;20518;-78
2022/09/20 00:18:20;;;;;;;14.75;3.30;;;;;;;;;;5067952;28;20032;-78
2022/09/20 00:20:46;;;;;;;9.55;2.08;;;;;;;;;;5068246;28;20047;-78
2022/09/20 00:23:16;;;;;;;12.85;2.85;;;;;;;;;;5067759;28;20039;-78
2022/09/20 00:25:42;;;;;;;10.07;2.67;;;;;;;;;;5068082;28;20492;-78
2022/09/20 00:28:09;;;;;;;11.43;2.50;;;;;;;;;;5068030;28;20426;-78
2022/09/20 00:30:36;;;;;;;12.18;2.42;;;;;;;;;;5067782;28;20075;-78
2022/09/20 00:33:02;;;;;;;11.82;2.72;;;;;;;;;;5067911;28;20506;-78
2022/09/20 00:35:29;;;;;;;10.00;1.73;;;;;;;;;;5059936;28;20028;-78
2022/09/20 00:37:56;;;;;;;14.85;3.28;;;;;;;;;;5068240;28;20052;-77
2022/09/20 00:40:22;;;;;;;9.90;3.10;;;;;;;;;;5066658;28;20078;-78
2022/09/20 00:42:49;;;;;;;11.15;2.33;;;;;;;;;;5066850;28;20029;-77
2022/09/20 00:45:23;;;;;;;11.52;2.33;;;;;;;;;;5067896;28;20040;-78
2022/09/20 00:47:58;;;;;;;9.13;2.28;;;;;;;;;;5067927;28;20363;-78
2022/09/20 00:50:36;;;;;;;9.07;2.70;;;;;;;;;;5068685;28;20028;-78
2022/09/20 00:53:05;;;;;;;8.85;2.03;;;;;;;;;;5049163;28;20032;-78
2022/09/20 00:55:32;;;;;;;9.77;2.20;;;;;;;;;;5048706;28;20075;-78
2022/09/20 00:57:59;;;;;;;9.10;2.28;;;;;;;;;;5067144;28;20020;-77
2022/09/20 01:00:25;;;;;;;8.63;2.63;;;;;;;;;;5067786;28;20052;-77
2022/09/20 01:02:54;;;;;;;10.35;2.63;;;;;;;;;;5066925;28;20028;-77
2022/09/20 01:05:20;;;;;;;10.07;2.20;;;;;;;;;;5067220;28;20047;-78
2022/09/20 01:07:48;;;;;;;11.77;2.05;;;;;;;;;;5067502;28;20027;-78
2022/09/20 01:10:14;;;;;;;10.30;2.83;;;;;;;;;;5071460;28;20479;-77
2022/09/20 01:12:42;;;;;;;8.65;2.58;;;;;;;;;;5069760;28;20071;-77
2022/09/20 01:15:09;;;;;;;10.85;2.45;;;;;;;;;;5070977;28;20035;-77
2022/09/20 01:17:36;;;;;;;11.55;2.33;;;;;;;;;;5069866;28;20160;-78
2022/09/20 01:20:05;;;;;;;9.05;1.58;;;;;;;;;;5071540;28;20103;-79
2022/09/20 01:22:43;;;;;;;7.07;1.70;;;;;;;;;;5070970;28;20048;-79
2022/09/20 01:25:12;;;;;;;12.80;2.13;;;;;;;;;;5070553;28;20036;-78
2022/09/20 01:27:51;;;;;;;15.23;2.20;;;;;;;;;;5069928;28;20032;-78
2022/09/20 01:30:23;;;;;;;9.77;1.67;;;;;;;;;;5071174;28;20097;-79
2022/09/20 01:32:52;;;;;;;10.52;2.42;;;;;;;;;;5069082;28;20426;-78
2022/09/20 01:35:20;;;;;;;11.20;1.98;;;;;;;;;;5070711;28;20028;-78
2022/09/20 01:37:46;;;;;;;11.80;1.95;;;;;;;;;;5070694;28;20028;-78
2022/09/20 01:40:26;;;;;;;9.10;2.33;;;;;;;;;;5070387;28;20498;-78
2022/09/20 01:43:07;;;;;;;9.65;2.20;;;;;;;;;;5070338;28;20044;-77
2022/09/20 01:45:33;;;;;;;9.20;2.22;;;;;;;;;;5069140;28;20052;-78
2022/09/20 01:48:05;;;;;;;6.72;1.50;;;;;;;;;;5068509;28;20032;-78
2022/09/20 01:50:37;;;;;;;9.18;2.22;;;;;;;;;;5070077;28;20032;-78
2022/09/20 01:53:26;;;;;;;9.65;2.05;;;;;;;;;;5070792;28;20028;-78
2022/09/20 01:56:15;;;;;;;12.93;3.30;;;;;;;;;;5068708;28;20040;-78
2022/09/20 01:58:53;;;;;;;10.63;2.50;;;;;;;;;;5070110;28;20028;-79
2022/09/20 02:01:19;;;;;;;9.23;1.95;;;;;;;;;;5070112;28;20030;-78
2022/09/20 02:04:09;;;;;;;12.25;2.15;;;;;;;;;;5063842;28;20118;-78
2022/09/20 02:06:39;;;;;;;8.68;1.92;;;;;;;;;;5068977;28;20292;-78
2022/09/20 02:09:24;;;;;;;8.52;1.60;;;;;;;;;;5068753;28;20054;-78
2022/09/20 02:12:13;;;;;;;9.73;1.90;;;;;;;;;;5070021;28;20073;-78
2022/09/20 02:14:40;;;;;;;7.43;2.05;;;;;;;;;;5070190;28;20534;-78
2022/09/20 02:17:20;;;;;;;7.30;2.08;;;;;;;;;;5070264;28;20020;-78
2022/09/20 02:19:50;;;;;;;10.10;1.55;;;;;;;;;;5068435;28;20020;-78
2022/09/20 02:22:26;;;;;;;7.25;1.67;;;;;;;;;;5069881;28;20051;-78
2022/09/20 02:25:01;;;;;;;12.15;2.30;;;;;;;;;;5069641;28;20032;-78
2022/09/20 02:27:30;;;;;;;9.85;2.67;;;;;;;;;;5070545;28;20063;-78
2022/09/20 02:30:15;;;;;;;6.07;1.33;;;;;;;;;;5068130;28;20032;-79
2022/09/20 02:32:41;;;;;;;8.40;1.25;;;;;;;;;;5069936;28;20033;-78
2022/09/20 02:35:24;;;;;;;10.70;2.13;;;;;;;;;;5070426;28;20052;-78
2022/09/20 02:38:05;;;;;;;9.25;1.92;;;;;;;;;;5069978;28;20028;-78
2022/09/20 02:40:39;;;;;;;12.57;3.05;;;;;;;;;;5069380;28;20025;-78
2022/09/20 02:43:17;;;;;;;11.85;2.85;;;;;;;;;;5069793;28;20029;-78
2022/09/20 02:45:54;;;;;;;9.63;2.10;;;;;;;;;;5069222;28;20024;-78
2022/09/20 02:48:24;;;;;;;8.98;1.70;;;;;;;;;;5068268;28;20028;-78
2022/09/20 02:50:56;;;;;;;13.27;2.35;;;;;;;;;;5069035;28;20047;-78
2022/09/20 02:53:22;;;;;;;11.90;2.65;;;;;;;;;;5068056;28;20029;-77
2022/09/20 02:56:01;;;;;;;6.38;2.00;;;;;;;;;;5068824;28;20024;-78
2022/09/20 02:58:27;;;;;;;6.90;2.13;;;;;;;;;;5069482;28;20545;-78
2022/09/20 03:01:05;;;;;;;8.15;1.70;;;;;;;;;;5068630;28;20573;-77
2022/09/20 03:03:37;;;;;;;14.45;2.40;;;;;;;;;;5068840;28;20133;-79
2022/09/20 03:06:06;;;;;;;11.98;1.60;;;;;;;;;;5068394;28;20036;-78
2022/09/20 03:08:35;;;;;;;15.98;2.65;;;;;;;;;;5069249;28;20060;-78
2022/09/20 03:11:21;;;;;;;6.85;1.90;;;;;;;;;;5066986;28;20020;-78
2022/09/20 03:13:59;;;;;;;10.10;2.20;;;;;;;;;;5069354;28;20025;-78
2022/09/20 03:16:31;;;;;;;8.68;2.30;;;;;;;;;;5069867;28;20031;-78
2022/09/20 03:18:57;;;;;;;9.73;2.30;;;;;;;;;;5068976;28;20044;-79
2022/09/20 03:21:35;;;;;;;10.50;2.03;;;;;;;;;;5068525;28;20040;-78
2022/09/20 03:24:11;;;;;;;10.52;2.45;;;;;;;;;;5068258;28;20051;-78
2022/09/20 03:26:39;;;;;;;10.93;2.30;;;;;;;;;;5068691;28;20037;-78
2022/09/20 03:29:17;;;;;;;8.18;2.40;;;;;;;;;;5069233;28;20375;-78
2022/09/20 03:32:04;;;;;;;5.75;1.80;;;;;;;;;;5068517;28;20016;-78
2022/09/20 03:34:42;;;;;;;11.95;2.03;;;;;;;;;;5068612;28;20039;-78
2022/09/20 03:37:20;;;;;;;8.77;1.98;;;;;;;;;;5068252;28;20021;-78
2022/09/20 03:40:05;;;;;;;11.75;3.05;;;;;;;;;;5068663;28;20033;-78
2022/09/20 03:42:31;;;;;;;11.63;2.72;;;;;;;;;;5066796;28;20083;-78
2022/09/20 03:45:16;;;;;;;15.57;2.83;;;;;;;;;;5068154;28;20040;-78
2022/09/20 03:48:02;;;;;;;8.88;2.00;;;;;;;;;;5066606;28;20013;-78
2022/09/20 03:50:28;;;;;;;11.88;2.60;;;;;;;;;;5068222;28;20048;-78
2022/09/20 03:53:26;;;;;;;11.07;2.40;;;;;;;;;;5067841;28;20095;-78
2022/09/20 03:56:11;;;;;;;11.05;2.42;;;;;;;;;;5068444;28;20115;-78
2022/09/20 03:59:02;;;;;;;11.50;3.42;;;;;;;;;;5066391;28;20035;-77
2022/09/20 04:01:44;;;;;;;8.90;2.13;;;;;;;;;;5066666;28;20441;-77
2022/09/20 04:04:29;;;;;;;8.65;1.80;;;;;;;;;;5067902;28;20596;-78
2022/09/20 04:07:02;;;;;;;9.13;2.42;;;;;;;;;;5066600;28;20033;-78
2022/09/20 04:09:47;;;;;;;8.45;2.40;;;;;;;;;;5064975;28;20056;-79
2022/09/20 04:12:29;;;;;;;9.80;3.40;;;;;;;;;;5066463;28;20058;-78
2022/09/20 04:15:09;;;;;;;9.43;2.33;;;;;;;;;;5067890;28;20020;-78
2022/09/20 04:17:47;;;;;;;7.45;2.63;;;;;;;;;;5067850;28;20105;-78
2022/09/20 04:20:13;;;;;;;8.32;2.10;;;;;;;;;;5068318;28;20032;-78
2022/09/20 04:22:40;;;;;;;8.05;1.98;;;;;;;;;;5067939;28;20507;-76
2022/09/20 04:25:26;;;;;;;10.60;2.25;;;;;;;;;;5070643;28;20111;-77
2022/09/20 04:27:56;;;;;;;11.93;2.97;;;;;;;;;;5070322;28;20025;-79
2022/09/20 04:30:29;;;;;;;7.95;2.20;;;;;;;;;;5070388;28;20058;-78
2022/09/20 04:33:08;;;;;;;15.82;3.83;;;;;;;;;;5067593;28;20119;-77
2022/09/20 04:38:39;;;;;;;15.93;3.33;;;;;;;;;;5070164;28;20027;-77
2022/09/20 04:41:16;;;;;;;9.43;3.08;;;;;;;;;;5069889;28;20056;-78
2022/09/20 04:44:10;;;;;;;12.02;2.88;;;;;;;;;;5070603;28;20021;-77
2022/09/20 04:46:46;;;;;;;10.52;2.45;;;;;;;;;;5073014;28;20487;-77
2022/09/20 04:49:15;;;;;;;8.73;3.20;;;;;;;;;;5072143;28;20032;-77
2022/09/20 04:51:57;;;;;;;9.57;2.40;;;;;;;;;;5071091;28;20050;-78
2022/09/20 04:54:23;;;;;;;6.05;2.50;;;;;;;;;;5071714;28;20013;-78
2022/09/20 04:57:07;;;;;;;12.40;4.07;;;;;;;;;;5072369;28;20024;-78
2022/09/20 04:59:39;;;;;;;12.23;3.08;;;;;;;;;;5071726;28;20017;-79
2022/09/20 05:02:36;;;;;;;8.63;3.03;;;;;;;;;;5070038;28;20056;-78
2022/09/20 05:05:02;;;;;;;12.10;3.67;;;;;;;;;;5068061;28;20714;-79
2022/09/20 05:07:31;;;;;;;8.85;3.05;;;;;;;;;;5071101;28;20490;-77
2022/09/20 05:10:03;;;;;;;8.63;2.42;;;;;;;;;;5069697;28;20016;-78
2022/09/20 05:12:36;;;;;;;9.10;2.60;;;;;;;;;;5069409;28;20119;-78
2022/09/20 05:15:01;;;;;;;9.80;2.90;;;;;;;;;;5071217;28;20048;-78
2022/09/20 05:17:37;;;;;;;11.77;4.55;;;;;;;;;;5071082;28;20522;-78
2022/09/20 05:20:09;;;;;;;14.10;3.38;;;;;;;;;;5071135;28;20048;-77
2022/09/20 05:22:35;;;;;;;7.75;2.95;;;;;;;;;;5070896;28;20550;-78
2022/09/20 05:25:01;;;;;;;8.95;2.75;;;;;;;;;;5070640;28;20112;-78
2022/09/20 05:27:28;;;;;;;8.20;3.10;;;;;;;;;;5071249;28;20052;-78
2022/09/20 05:29:54;;;;;;;9.90;3.72;;;;;;;;;;5069192;28;20722;-78
2022/09/20 05:32:32;;;;;;;9.55;3.40;;;;;;;;;;5069882;28;20029;-77
2022/09/20 05:35:02;;;;;;;12.00;3.58;;;;;;;;;;5070305;28;20033;-77
2022/09/20 05:37:27;;;;;;;7.95;3.50;;;;;;;;;;5070624;28;20032;-78
2022/09/20 05:40:13;;;;;;;9.25;3.33;;;;;;;;;;5070510;28;20029;-77
2022/09/20 05:42:48;;;;;;;7.80;3.42;;;;;;;;;;5070793;28;20427;-78
2022/09/20 05:45:17;;;;;;;12.90;2.88;;;;;;;;;;5068972;28;20029;-78
2022/09/20 05:48:02;;;;;;;7.75;2.58;;;;;;;;;;5067055;28;20126;-77
2022/09/20 05:50:47;;;;;;;11.57;3.30;;;;;;;;;;5070324;28;20031;-77
2022/09/20 05:53:13;;;;;;;11.05;3.03;;;;;;;;;;5070193;28;20024;-78
2022/09/20 05:55:48;;;;;;;10.57;2.83;;;;;;;;;;5070264;28;20495;-77
2022/09/20 05:58:14;;;;;;;11.05;2.85;;;;;;;;;;5069861;28;20028;-78
2022/09/20 06:00:48;;;;;;;7.28;2.55;;;;;;;;;;5070476;28;20036;-77
2022/09/20 06:03:32;;;;;;;11.60;3.28;;;;;;;;;;5057962;28;20662;-78
2022/09/20 06:06:09;;;;;;;11.30;3.17;;;;;;;;;;5051986;28;20037;-77
2022/09/20 06:08:45;;;;;;;10.70;3.42;;;;;;;;;;5070393;28;20024;-78
2022/09/20 06:11:13;;;;;;;11.43;3.92;;;;;;;;;;5069679;28;20032;-78
2022/09/20 06:13:58;;;;;;;10.95;3.03;;;;;;;;;;5068340;28;20059;-75
2022/09/20 06:16:46;;;;;;;13.98;3.60;;;;;;;;;;5070037;28;20115;-76
2022/09/20 06:19:18;;;;;;;9.68;2.67;;;;;;;;;;5058606;28;20024;-76
2022/09/20 06:21:54;;;;;;;10.93;3.25;;;;;;;;;;5068450;28;20553;-77
2022/09/20 06:24:38;;;;;;;10.48;2.72;;;;;;;;;;5069459;28;20024;-77
2022/09/20 06:27:07;;;;;;;15.63;3.40;;;;;;;;;;5069322;28;20021;-76
2022/09/20 06:29:35;;;;;;;9.20;2.13;;;;;;;;;;5059243;28;20705;-76
2022/09/20 06:32:02;;;;;;;12.35;2.83;;;;;;;;;;5070232;28;20074;-76
2022/09/20 06:34:28;;;;;;;6.97;2.20;;;;;;;;;;5070651;28;20108;-76
2022/09/20 06:42:29;;;;;;;9.32;2.33;;;;;;;;;;5070854;28;20022;-75
2022/09/20 06:44:55;;;;;;;13.15;3.15;;;;;;;;;;5069740;28;20466;-75
2022/09/20 06:47:22;;;;;;;13.98;2.92;;;;;;;;;;5069612;28;20033;-75
2022/09/20 06:49:49;;;;;;;13.95;2.47;;;;;;;;;;5062883;28;20031;-75
2022/09/20 06:52:16;;;;;;;13.27;2.53;;;;;;;;;;5051819;28;20071;-76
2022/09/20 06:54:44;;;;;;;11.68;2.22;;;;;;;;;;5069141;28;20024;-76
2022/09/20 06:57:11;;;;;;;12.00;2.42;;;;;;;;;;5069290;28;20028;-74
2022/09/20 06:59:38;;;;;;;16.25;3.22;;;;;;;;;;5061931;28;20623;-74
2022/09/20 07:02:04;;;;;;;9.93;2.28;;;;;;;;;;5058647;28;20139;-75
2022/09/20 07:04:31;;;;;;;10.20;2.67;;;;;;;;;;5061472;28;20059;-74
2022/09/20 07:07:02;;;;;;;9.07;2.67;;;;;;;;;;5058394;28;20041;-75
2022/09/20 07:09:28;;;;;;;9.77;2.35;;;;;;;;;;5063297;28;20685;-76
2022/09/20 07:11:55;;;;;;;11.77;4.25;;;;;;;;;;5057376;28;20049;-77
2022/09/20 07:14:22;;;;;;;8.25;3.38;;;;;;;;;;5061522;28;20039;-77
2022/09/20 07:16:48;;;;;;;7.70;2.60;;;;;;;;;;5057204;28;20024;-77
2022/09/20 07:19:15;;;;;;;4.45;1.20;;;;;;;;;;5062043;28;20032;-77
2022/09/20 07:21:41;;;;;;;7.47;2.33;;;;;;;;;;5059441;28;20044;-77
2022/09/20 07:24:07;;;;;;;11.55;3.17;;;;;;;;;;5061315;28;20017;-78
2022/09/20 07:26:33;;;;;;;7.85;2.20;;;;;;;;;;5065400;28;20124;-78
2022/09/20 07:29:00;;;;;;;6.38;1.73;;;;;;;;;;5068554;28;20025;-78
2022/09/20 07:31:27;;;;;;;7.50;2.53;;;;;;;;;;5067594;28;20118;-78
2022/09/20 07:33:54;;;;;;;9.05;2.65;;;;;;;;;;5058703;28;20052;-78
2022/09/20 07:36:20;;;;;;;7.85;2.72;;;;;;;;;;5061280;28;20107;-77
2022/09/20 07:38:47;;;;;;;7.70;2.25;;;;;;;;;;5062382;28;20033;-77
2022/09/20 07:41:13;;;;;;;8.57;2.40;;;;;;;;;;5058546;28;20024;-77
2022/09/20 07:43:39;;;;;;;7.10;2.60;;;;;;;;;;5053469;28;20029;-77
2022/09/20 07:46:05;;;;;;;8.93;3.15;;;;;;;;;;5057538;28;20045;-78
2022/09/20 07:48:33;;;;;;;6.05;2.17;;;;;;;;;;5066722;28;20441;-78
2022/09/20 07:51:05;;;;;;;5.40;1.80;;;;;;;;;;5067645;28;20028;-77
2022/09/20 07:53:31;;;;;;;5.05;1.10;;;;;;;;;;5067970;28;20126;-79
2022/09/20 07:56:10;;;;;;;7.38;1.30;;;;;;;;;;5067499;28;20029;-79
2022/09/20 07:58:36;;;;;;;5.57;1.90;;;;;;;;;;5066397;28;20024;-78
2022/09/20 08:01:07;;;;;;;5.20;1.38;;;;;;;;;;5067758;28;20024;-78
2022/09/20 08:03:33;;;;;;;4.57;1.30;;;;;;;;;;5067622;28;20017;-78
2022/09/20 08:06:00;;;;;;;7.57;1.50;;;;;;;;;;5065693;28;20592;-79
2022/09/20 08:08:27;;;;;;;5.70;1.27;;;;;;;;;;5066439;28;20103;-80
2022/09/20 08:11:01;;;;;;;4.72;1.85;;;;;;;;;;5065980;28;20046;-78
2022/09/20 08:13:28;;;;;;;8.40;1.67;;;;;;;;;;5065263;28;20402;-78
2022/09/20 08:16:01;;;;;;;8.43;2.10;;;;;;;;;;5065773;28;20378;-78
2022/09/20 08:18:27;;;;;;;12.05;3.10;;;;;;;;;;5068243;28;20040;-79
2022/09/20 08:20:54;;;;;;;8.32;2.50;;;;;;;;;;5070483;28;20020;-78
2022/09/20 08:23:20;;;;;;;10.73;2.90;;;;;;;;;;5071223;28;20467;-78
2022/09/20 08:25:48;;;;;;;8.52;2.30;;;;;;;;;;5072004;28;20032;-78
2022/09/20 08:28:14;;;;;;;7.50;1.90;;;;;;;;;;5071163;28;20464;-78
2022/09/20 08:30:41;;;;;;;6.95;2.75;;;;;;;;;;5070774;28;20106;-78
2022/09/20 08:33:08;;;;;;;5.78;1.50;;;;;;;;;;5072068;28;20047;-78
2022/09/20 08:35:37;;;;;;;6.28;2.05;;;;;;;;;;5070534;28;20059;-79
2022/09/20 08:38:03;;;;;;;6.30;1.50;;;;;;;;;;5071443;28;20025;-79
2022/09/20 08:40:30;;;;;;;8.13;1.73;;;;;;;;;;5071791;28;20146;-78
2022/09/20 08:42:56;;;;;;;5.45;1.30;;;;;;;;;;5071233;28;20131;-75
2022/09/20 08:45:24;;;;;;;5.65;1.17;;;;;;;;;;5071429;28;20052;-76
2022/09/20 08:47:53;;;;;;;4.47;0.90;;;;;;;;;;5071526;28;20071;-77
2022/09/20 08:50:19;;;;;;;5.57;1.08;;;;;;;;;;5071069;28;20029;-75
2022/09/20 08:52:48;;;;;;;3.63;1.15;;;;;;;;;;5071923;28;20055;-75
2022/09/20 08:55:20;;;;;;;2.33;0.70;;;;;;;;;;5071608;28;20016;-76
2022/09/20 08:57:52;;;;;;;4.20;1.20;;;;;;;;;;5073349;28;20437;-76
2022/09/20 09:00:20;;;;;;;4.25;1.30;;;;;;;;;;5071073;28;20115;-76
2022/09/20 09:02:46;;;;;;;6.88;1.23;;;;;;;;;;5071172;28;20215;-76
2022/09/20 09:05:30;;;;;;;5.53;1.13;;;;;;;;;;5071054;28;20143;-76
2022/09/20 09:07:59;;;;;;;5.90;1.63;;;;;;;;;;5070013;28;20028;-76
2022/09/20 09:10:27;;;;;;;9.52;1.70;;;;;;;;;;5065170;28;20029;-76
2022/09/20 09:12:54;;;;;;;5.93;1.63;;;;;;;;;;5064273;28;20020;-76
2022/09/20 09:15:25;;;;;;;4.53;0.85;;;;;;;;;;5063759;28;20027;-76
2022/09/20 09:17:52;;;;;;;8.10;1.55;;;;;;;;;;5064037;28;20021;-75
2022/09/20 09:20:22;;;;;;;5.38;1.58;;;;;;;;;;5059810;28;20025;-76
2022/09/20 09:22:58;;;;;;;5.80;1.20;;;;;;;;;;5061663;28;20040;-75
2022/09/20 09:25:33;;;;;;;6.50;1.42;;;;;;;;;;5061081;28;20531;-76
2022/09/20 09:28:07;;;;;;;11.00;1.67;;;;;;;;;;5061069;28;20104;-75
2022/09/20 09:30:45;;;;;;;6.35;1.30;;;;;;;;;;5061926;28;20099;-75
2022/09/20 09:33:26;;;;;;;10.60;1.40;;;;;;;;;;5063056;28;20021;-77
2022/09/20 09:35:54;;;;;;;7.68;1.13;;;;;;;;;;5064202;28;20485;-77
2022/09/20 09:38:22;;;;;;;2.83;1.02;;;;;;;;;;5059512;28;20016;-78
2022/09/20 09:40:51;;;;;;;9.25;2.03;;;;;;;;;;5055709;28;20033;-76
2022/09/20 09:43:23;;;;;;;6.93;1.30;;;;;;;;;;5056282;28;20109;-77
2022/09/20 09:45:49;;;;;;;6.80;1.48;;;;;;;;;;5053898;28;20033;-76
2022/09/20 09:48:24;;;;;;;9.07;1.52;;;;;;;;;;5057113;28;20033;-77
2022/09/20 09:50:52;;;;;;;7.80;1.52;;;;;;;;;;5056584;28;20029;-76
2022/09/20 09:53:21;;;;;;;6.38;1.25;;;;;;;;;;5056488;28;20021;-76
2022/09/20 09:56:03;;;;;;;7.13;1.52;;;;;;;;;;5055195;28;20544;-76
2022/09/20 09:58:54;;;;;;;5.88;1.17;;;;;;;;;;5053025;28;20106;-76
2022/09/20 10:01:29;;;;;;;8.73;1.67;;;;;;;;;;5053755;28;20494;-76
2022/09/20 10:04:03;;;;;;;5.18;1.35;;;;;;;;;;5053702;28;20110;-76
2022/09/20 10:06:33;;;;;;;5.50;1.40;;;;;;;;;;5054988;28;20041;-76
2022/09/20 10:09:15;;;;;;;4.63;1.05;;;;;;;;;;5054878;28;20811;-75
2022/09/20 10:11:46;;;;;;;5.00;0.95;;;;;;;;;;5059812;28;20487;-75
2022/09/20 10:14:32;;;;;;;6.63;1.25;;;;;;;;;;5054173;28;20029;-75
2022/09/20 10:17:11;;;;;;;3.33;0.80;;;;;;;;;;5054543;28;20036;-75
2022/09/20 10:20:02;;;;;;;3.25;0.70;;;;;;;;;;5057215;28;20020;-75
2022/09/20 10:22:47;;;;;;;6.05;1.17;;;;;;;;;;5055086;28;20052;-75
2022/09/20 10:25:16;;;;;;;7.85;1.40;;;;;;;;;;5055677;28;20098;-76
2022/09/20 10:28:00;;;;;;;4.45;0.70;;;;;;;;;;5054826;28;20479;-75
2022/09/20 10:30:35;;;;;;;2.97;0.88;;;;;;;;;;5056047;28;20043;-75
2022/09/20 10:33:21;;;;;;;5.72;0.98;;;;;;;;;;5053387;28;20060;-75
2022/09/20 10:35:54;;;;;;;4.40;1.10;;;;;;;;;;5057155;28;20025;-75
2022/09/20 10:38:25;;;;;;;3.78;0.60;;;;;;;;;;5055879;28;20033;-77
2022/09/20 10:44:15;;;;;;;4.38;0.70;;;;;;;;;;5057022;28;20561;-75
2022/09/20 10:46:51;;;;;;;3.95;0.95;;;;;;;;;;5053629;28;20060;-75
2022/09/20 10:49:23;;;;;;;4.05;0.70;;;;;;;;;;5056007;28;20501;-76
2022/09/20 10:51:59;;;;;;;7.47;1.52;;;;;;;;;;5054343;28;20025;-75
2022/09/20 10:54:42;;;;;;;3.95;0.85;;;;;;;;;;5053195;28;20025;-75
2022/09/20 10:57:27;;;;;;;4.47;1.63;;;;;;;;;;5057475;28;20445;-75
2022/09/20 11:00:01;;;;;;;6.15;1.13;;;;;;;;;;5058317;28;20055;-75
2022/09/20 11:02:48;;;;;;;6.20;0.98;;;;;;;;;;5052869;28;20079;-75
2022/09/20 11:05:37;;;;;;;4.30;1.02;;;;;;;;;;5053821;28;20040;-74
2022/09/20 11:08:21;;;;;;;4.70;0.75;;;;;;;;;;5055036;28;20499;-75
2022/09/20 11:10:55;;;;;;;5.65;1.27;;;;;;;;;;5055183;28;20421;-76
2022/09/20 11:13:38;;;;;;;5.20;1.13;;;;;;;;;;5056491;28;20032;-75
2022/09/20 11:16:06;;;;;;;4.05;1.02;;;;;;;;;;5051910;28;20556;-76
2022/09/20 11:18:51;;;;;;;6.88;1.27;;;;;;;;;;5055885;28;20742;-76
2022/09/20 11:21:24;;;;;;;5.47;1.10;;;;;;;;;;5051409;28;20099;-75
2022/09/20 11:24:09;;;;;;;10.40;1.55;;;;;;;;;;5050517;28;20032;-74
2022/09/20 11:26:38;;;;;;;4.32;0.95;;;;;;;;;;5052471;28;20036;-76
2022/09/20 11:29:20;;;;;;;4.25;0.80;;;;;;;;;;5053826;28;20103;-76
2022/09/20 11:31:49;;;;;;;2.97;0.80;;;;;;;;;;5054691;28;20033;-73
2022/09/20 11:34:22;;;;;;;4.80;0.80;;;;;;;;;;5056249;28;20024;-76
2022/09/20 11:36:56;;;;;;;3.83;0.90;;;;;;;;;;5054651;28;20029;-76
2022/09/20 11:39:29;;;;;;;4.93;1.15;;;;;;;;;;5053528;28;20027;-75
2022/09/20 11:41:56;;;;;;;6.68;1.42;;;;;;;;;;5054660;28;20089;-75
2022/09/20 11:44:22;;;;;;;5.70;1.23;;;;;;;;;;5053827;28;20029;-75
2022/09/20 11:47:01;;;;;;;3.15;0.75;;;;;;;;;;5052551;28;20048;-74
2022/09/20 11:49:48;;;;;;;9.75;1.30;;;;;;;;;;5053013;28;20024;-75
2022/09/20 11:52:33;;;;;;;4.90;0.98;;;;;;;;;;5051128;28;20044;-75
2022/09/20 11:55:17;;;;;;;8.52;1.42;;;;;;;;;;5052768;28;20553;-75
2022/09/20 11:57:45;;;;;;;8.45;1.05;;;;;;;;;;5056397;28;20538;-75
2022/09/20 12:00:11;;;;;;;6.75;1.10;;;;;;;;;;5053545;28;20399;-75
2022/09/20 12:02:51;;;;;;;4.30;1.00;;;;;;;;;;5050628;28;20025;-75
2022/09/20 12:05:25;;;;;;;7.72;1.20;;;;;;;;;;5053228;28;20048;-75
2022/09/20 12:07:54;;;;;;;8.48;1.60;;;;;;;;;;5052864;28;20029;-75
2022/09/20 12:10:24;;;;;;;7.65;1.27;;;;;;;;;;5054459;28;20776;-75
2022/09/20 12:12:55;;;;;;;11.88;1.00;;;;;;;;;;5054734;28;20110;-76
2022/09/20 12:15:21;;;;;;;7.70;1.13;;;;;;;;;;5053944;28;20036;-77
2022/09/20 12:17:48;;;;;;;9.27;1.00;;;;;;;;;;5055213;28;20458;-76
2022/09/20 12:20:37;;;;;;;4.15;0.70;;;;;;;;;;5051390;28;20387;-74
2022/09/20 12:23:22;;;;;;;2.95;0.70;;;;;;;;;;5051938;28;20052;-78
2022/09/20 12:26:01;;;;;;;3.80;0.95;;;;;;;;;;5053368;28;20032;-75
2022/09/20 12:28:34;;;;;;;6.63;1.25;;;;;;;;;;5054309;28;20470;-75
2022/09/20 12:31:19;;;;;;;6.95;0.90;;;;;;;;;;5054022;28;20767;-74
2022/09/20 12:33:55;;;;;;;4.97;1.17;;;;;;;;;;5053415;28;20025;-76
2022/09/20 12:36:21;;;;;;;7.95;1.13;;;;;;;;;;5051982;28;20491;-76
2022/09/20 12:38:49;;;;;;;5.68;0.90;;;;;;;;;;5050945;28;20029;-74
2022/09/20 12:41:16;;;;;;;4.30;0.80;;;;;;;;;;5054031;28;20041;-75
2022/09/20 12:43:57;;;;;;;3.83;1.33;;;;;;;;;;5050295;28;20033;-75
2022/09/20 12:46:26;;;;;;;5.55;0.90;;;;;;;;;;5051945;28;20058;-75
2022/09/20 12:49:09;;;;;;;2.33;0.70;;;;;;;;;;5054523;28;20032;-77
2022/09/20 12:54:20;;;;;;;6.20;1.00;;;;;;;;;;5052582;28;20035;-74
2022/09/20 12:56:47;;;;;;;5.97;0.80;;;;;;;;;;5054681;28;20029;-75
2022/09/20 12:59:26;;;;;;;2.35;0.60;;;;;;;;;;5053638;28;20031;-75
2022/09/20 13:01:52;;;;;;;4.10;1.00;;;;;;;;;;5054908;28;20028;-75
2022/09/20 13:04:37;;;;;;;7.22;1.23;;;;;;;;;;5053822;28;20020;-75
2022/09/20 13:07:21;;;;;;;7.18;1.13;;;;;;;;;;5057310;28;20174;-75
2022/09/20 13:09:48;;;;;;;5.10;0.80;;;;;;;;;;5054503;28;20043;-75
2022/09/20 13:12:16;;;;;;;4.88;1.10;;;;;;;;;;5055642;28;20040;-75
2022/09/20 13:14:46;;;;;;;4.35;0.70;;;;;;;;;;5053909;28;20033;-75
2022/09/20 13:17:15;;;;;;;4.27;1.20;;;;;;;;;;5057067;28;20056;-77
2022/09/20 13:19:45;;;;;;;3.80;1.20;;;;;;;;;;5057414;28;20024;-76
2022/09/20 13:22:16;;;;;;;4.72;0.80;;;;;;;;;;5057412;28;20892;-76
2022/09/20 13:24:43;;;;;;;7.40;1.50;;;;;;;;;;5054562;28;20029;-76
2022/09/20 13:27:16;;;;;;;7.75;1.08;;;;;;;;;;5057108;28;20095;-75
2022/09/20 13:29:43;;;;;;;3.90;1.23;;;;;;;;;;5057212;28;20519;-76
2022/09/20 13:32:25;;;;;;;7.00;1.23;;;;;;;;;;5057453;28;20580;-76
2022/09/20 13:35:07;;;;;;;10.13;1.08;;;;;;;;;;5057811;28;20025;-76
2022/09/20 13:37:34;;;;;;;9.95;1.15;;;;;;;;;;5054557;28;20463;-77
2022/09/20 13:40:03;;;;;;;9.90;1.45;;;;;;;;;;5055966;28;20037;-76
2022/09/20 13:42:29;;;;;;;10.15;1.20;;;;;;;;;;5056839;28;20545;-76
2022/09/20 13:44:57;;;;;;;7.28;1.42;;;;;;;;;;5056669;28;20032;-76
2022/09/20 13:47:26;;;;;;;9.25;2.30;;;;;;;;;;5056904;28;20033;-76
2022/09/20 13:49:59;;;;;;;7.60;1.45;;;;;;;;;;5054439;28;20032;-76
2022/09/20 13:52:26;;;;;;;6.60;1.40;;;;;;;;;;5059752;28;20049;-76
2022/09/20 13:54:53;;;;;;;9.13;1.92;;;;;;;;;;5055989;28;20025;-76
2022/09/20 13:57:22;;;;;;;10.73;1.75;;;;;;;;;;5054747;28;20044;-76
2022/09/20 13:59:48;;;;;;;13.40;1.67;;;;;;;;;;5057730;28;20070;-76
2022/09/20 14:02:20;;;;;;;11.90;1.35;;;;;;;;;;5053250;28;20036;-77
2022/09/20 14:04:49;;;;;;;11.25;2.28;;;;;;;;;;5058064;28;20029;-76
2022/09/20 14:07:15;;;;;;;9.40;1.60;;;;;;;;;;5056917;28;20063;-76
2022/09/20 14:09:44;;;;;;;9.73;1.75;;;;;;;;;;5056390;28;20017;-77
2022/09/20 14:12:13;;;;;;;11.25;1.50;;;;;;;;;;5055749;28;20362;-75
2022/09/20 14:14:39;;;;;;;8.57;1.10;;;;;;;;;;5056109;28;20086;-75
2022/09/20 14:17:08;;;;;;;9.88;1.77;;;;;;;;;;5056382;28;20048;-76
2022/09/20 14:19:39;;;;;;;6.38;1.42;;;;;;;;;;5057637;28;20036;-75
2022/09/20 14:22:06;;;;;;;9.18;1.95;;;;;;;;;;5058355;28;20486;-74
2022/09/20 14:24:34;;;;;;;11.73;1.63;;;;;;;;;;5053628;28;20035;-74
2022/09/20 14:27:15;;;;;;;11.75;1.63;;;;;;;;;;5052175;28;20412;-75
2022/09/20 14:29:42;;;;;;;9.85;1.42;;;;;;;;;;5058747;28;20467;-75
2022/09/20 14:32:11;;;;;;;7.93;1.50;;;;;;;;;;5055366;28;20025;-76
2022/09/20 14:34:38;;;;;;;7.10;1.95;;;;;;;;;;5055905;28;20036;-77
2022/09/20 14:37:24;;;;;;;7.18;1.20;;;;;;;;;;5055170;28;20020;-76
2022/09/20 14:39:55;;;;;;;6.18;1.05;;;;;;;;;;5054193;28;20040;-77
2022/09/20 14:42:33;;;;;;;6.95;1.42;;;;;;;;;;5054300;28;20120;-77
2022/09/20 14:44:59;;;;;;;7.82;1.20;;;;;;;;;;5051616;28;20156;-77
2022/09/20 14:47:36;;;;;;;6.95;1.77;;;;;;;;;;5053118;28;20040;-76
2022/09/20 14:50:02;;;;;;;9.00;1.60;;;;;;;;;;5057278;28;20024;-75
2022/09/20 14:52:28;;;;;;;12.85;2.22;;;;;;;;;;5056533;28;20642;-75
2022/09/20 14:55:11;;;;;;;9.65;1.17;;;;;;;;;;5056291;28;20696;-76
2022/09/20 14:57:37;;;;;;;16.52;1.98;;;;;;;;;;5053200;28;20054;-76
2022/09/20 15:00:15;;;;;;;7.00;1.60;;;;;;;;;;5053245;28;20029;-76
2022/09/20 15:02:45;;;;;;;9.15;1.52;;;;;;;;;;5055616;28;20104;-76
2022/09/20 15:05:20;;;;;;;10.55;1.63;;;;;;;;;;5055489;28;20028;-76
2022/09/20 15:07:47;;;;;;;10.45;1.67;;;;;;;;;;5057462;28;20041;-76
2022/09/20 15:10:13;;;;;;;8.77;3.58;;;;;;;;;;5051139;28;20678;-76
2022/09/20 15:12:41;;;;;;;8.48;3.40;;;;;;;;;;5050830;28;20028;-76
2022/09/20 15:15:13;;;;;;;7.15;1.92;;;;;;;;;;5051610;28;20428;-76
2022/09/20 15:17:40;;;;;;;8.35;2.10;;;;;;;;;;5051749;28;20564;-76
2022/09/20 15:20:06;;;;;;;6.32;2.45;;;;;;;;;;5056684;28;20016;-76
2022/09/20 15:22:32;;;;;;;12.23;3.50;;;;;;;;;;5050773;28;20852;-76
2022/09/20 15:24:58;;;;;;;5.00;2.42;;;;;;;;;;5050989;28;20483;-76